createdAt,value
2022-10-31T00:01:26.839Z,14.10
2022-10-31T00:09:53.631Z,17.70
2022-10-31T00:13:29.172Z,17.70
2022-10-31T00:17:27.923Z,17.20
2022-10-31T00:21:27.634Z,17.30
2022-10-31T00:25:41.253Z,17.70
2022-10-31T00:29:39.616Z,20.20
2022-10-31T00:33:39.272Z,21.10
2022-10-31T00:37:38.096Z,19.20
2022-10-31T00:41:36.506Z,15.90
2022-10-31T00:45:34.809Z,13.60
2022-10-31T00:49:32.687Z,13.90
2022-10-31T00:53:30.710Z,13.80
2022-10-31T00:57:28.876Z,12.70
2022-10-31T01:01:27.536Z,12.60
2022-10-31T01:05:26.050Z,17.40
2022-10-31T01:09:24.505Z,12.90
2022-10-31T01:13:23.138Z,12.70
2022-10-31T01:17:21.993Z,14.30
2022-10-31T01:21:23.675Z,13.60
2022-10-31T01:25:22.006Z,12.70
2022-10-31T01:29:21.568Z,12.90
2022-10-31T01:33:22.694Z,13.90
2022-10-31T01:36:58.208Z,14.40
2022-10-31T01:40:56.922Z,16.10
2022-10-31T01:45:11.644Z,15.40
2022-10-31T01:49:35.199Z,17.10
2022-10-31T01:53:34.783Z,17.00
2022-10-31T01:57:34.491Z,17.40
2022-10-31T02:01:51.318Z,14.80
2022-10-31T02:06:07.948Z,18.60
2022-10-31T02:10:06.923Z,15.50
2022-10-31T02:14:05.783Z,14.40
2022-10-31T02:18:06.058Z,16.40
2022-10-31T02:22:12.103Z,20.30
2022-10-31T02:26:48.263Z,17.80
2022-10-31T02:30:50.544Z,16.80
2022-10-31T02:34:54.214Z,18.90
2022-10-31T02:39:13.097Z,18.40
2022-10-31T02:43:36.447Z,18.80
2022-10-31T02:47:43.064Z,20.00
2022-10-31T02:51:41.447Z,20.80
2022-10-31T02:55:39.775Z,19.00
2022-10-31T02:59:43.774Z,20.80
2022-10-31T03:03:45.031Z,19.70
2022-10-31T03:07:49.573Z,18.90
2022-10-31T03:12:08.398Z,18.40
2022-10-31T03:16:50.573Z,20.60
2022-10-31T03:21:11.373Z,20.90
2022-10-31T03:25:24.494Z,17.40
2022-10-31T03:29:31.057Z,20.00
2022-10-31T03:33:32.990Z,21.40
2022-10-31T03:37:34.041Z,21.80
2022-10-31T03:41:37.123Z,21.30
2022-10-31T03:45:40.584Z,20.60
2022-10-31T03:49:39.531Z,20.30
2022-10-31T03:54:01.861Z,18.40
2022-10-31T03:58:39.418Z,18.10
2022-10-31T04:02:42.884Z,19.00
2022-10-31T04:06:44.293Z,21.20
2022-10-31T04:10:45.181Z,19.80
2022-10-31T04:14:47.235Z,18.50
2022-10-31T04:18:46.243Z,19.50
2022-10-31T04:22:44.825Z,19.30
2022-10-31T04:26:43.233Z,21.10
2022-10-31T04:30:41.326Z,21.00
2022-10-31T04:34:39.592Z,18.50
2022-10-31T04:38:38.583Z,18.50
2022-10-31T04:43:01.960Z,17.50
2022-10-31T04:47:00.963Z,20.70
2022-10-31T04:51:00.807Z,18.00
2022-10-31T04:54:59.309Z,19.60
2022-10-31T04:59:16.792Z,18.70
2022-10-31T05:03:22.219Z,17.60
2022-10-31T05:07:20.429Z,19.10
2022-10-31T05:11:18.333Z,19.50
2022-10-31T05:15:17.493Z,19.70
2022-10-31T05:24:22.883Z,21.80
2022-10-31T05:28:21.345Z,21.80
2022-10-31T05:32:19.424Z,22.80
2022-10-31T05:36:40.463Z,21.00
2022-10-31T05:40:48.264Z,21.70
2022-10-31T05:44:46.834Z,24.70
2022-10-31T05:49:05.565Z,24.80
2022-10-31T05:53:24.868Z,19.30
2022-10-31T05:57:00.687Z,21.70
2022-10-31T06:00:58.944Z,23.50
2022-10-31T06:04:57.610Z,21.80
2022-10-31T06:08:57.668Z,21.80
2022-10-31T06:12:56.828Z,21.50
2022-10-31T06:17:21.466Z,20.20
2022-10-31T06:21:19.495Z,20.40
2022-10-31T06:25:19.705Z,21.90
2022-10-31T06:29:21.398Z,21.90
2022-10-31T06:33:42.997Z,21.00
2022-10-31T06:37:43.396Z,21.70
2022-10-31T06:41:55.509Z,21.30
2022-10-31T06:45:54.132Z,24.10
2022-10-31T06:50:04.366Z,20.70
2022-10-31T06:54:02.709Z,19.20
2022-10-31T06:58:03.267Z,20.30
2022-10-31T07:02:03.454Z,21.00
2022-10-31T07:06:01.758Z,19.50
2022-10-31T07:10:00.606Z,19.30
2022-10-31T07:14:22.216Z,17.90
2022-10-31T07:18:35.838Z,17.40
2022-10-31T07:22:38.861Z,21.60
2022-10-31T07:26:53.298Z,17.90
2022-10-31T07:30:56.733Z,19.50
2022-10-31T07:39:33.977Z,20.10
2022-10-31T07:43:32.898Z,19.00
2022-10-31T07:48:11.364Z,21.60
2022-10-31T07:52:30.703Z,21.60
2022-10-31T07:56:48.394Z,15.30
2022-10-31T08:01:01.385Z,22.80
2022-10-31T08:05:06.045Z,24.00
2022-10-31T08:09:37.337Z,22.10
2022-10-31T08:13:44.377Z,22.10
2022-10-31T08:17:46.356Z,22.70
2022-10-31T08:21:59.485Z,21.40
2022-10-31T08:26:11.705Z,23.50
2022-10-31T08:30:10.950Z,24.90
2022-10-31T08:34:11.128Z,23.90
2022-10-31T08:38:28.584Z,25.30
2022-10-31T08:42:27.120Z,24.80
2022-10-31T08:46:25.644Z,25.00
2022-10-31T08:54:40.013Z,24.50
2022-10-31T08:59:11.298Z,27.50
2022-10-31T09:03:34.544Z,26.60
2022-10-31T09:07:33.433Z,25.50
2022-10-31T09:11:34.109Z,24.40
2022-10-31T09:15:10.466Z,27.00
2022-10-31T09:19:16.077Z,24.70
2022-10-31T09:23:19.917Z,25.20
2022-10-31T09:27:18.550Z,24.40
2022-10-31T09:31:19.554Z,25.70
2022-10-31T09:35:48.089Z,24.20
2022-10-31T09:39:48.357Z,25.70
2022-10-31T09:44:23.397Z,24.10
2022-10-31T09:48:18.837Z,24.20
2022-10-31T09:53:04.874Z,24.50
2022-10-31T09:57:07.130Z,26.70
2022-10-31T10:01:07.164Z,20.40
2022-10-31T10:05:28.840Z,22.80
2022-10-31T10:09:30.566Z,22.70
2022-10-31T10:14:05.646Z,20.20
2022-10-31T10:18:11.016Z,21.60
2022-10-31T10:22:13.565Z,21.60
2022-10-31T10:26:19.205Z,23.30
2022-10-31T10:30:28.373Z,19.80
2022-10-31T10:34:38.565Z,21.90
2022-10-31T10:38:51.264Z,20.40
2022-10-31T10:43:28.184Z,20.40
2022-10-31T10:47:38.675Z,19.90
2022-10-31T10:56:29.378Z,21.30
2022-10-31T11:00:35.932Z,20.30
2022-10-31T11:04:37.039Z,21.50
2022-10-31T11:08:37.042Z,22.30
2022-10-31T11:13:21.511Z,23.00
2022-10-31T11:17:41.811Z,21.80
2022-10-31T11:21:40.092Z,23.10
2022-10-31T11:26:04.002Z,22.70
2022-10-31T11:34:34.166Z,23.40
2022-10-31T11:38:42.332Z,24.10
2022-10-31T11:42:42.781Z,22.70
2022-10-31T11:47:00.153Z,23.10
2022-10-31T11:51:00.012Z,22.80
2022-10-31T11:55:04.048Z,22.30
2022-10-31T11:58:36.014Z,21.80
2022-10-31T12:02:34.864Z,23.60
2022-10-31T12:06:38.795Z,23.50
2022-10-31T12:11:04.926Z,24.60
2022-10-31T12:15:22.268Z,25.30
2022-10-31T12:19:39.455Z,22.80
2022-10-31T12:23:49.635Z,25.00
2022-10-31T12:28:10.790Z,26.10
2022-10-31T12:32:30.300Z,26.90
2022-10-31T12:36:51.129Z,27.60
2022-10-31T12:41:09.518Z,28.30
2022-10-31T12:45:13.414Z,27.30
2022-10-31T12:49:53.835Z,28.20
2022-10-31T12:54:14.646Z,28.10
2022-10-31T12:58:37.988Z,28.10
2022-10-31T13:02:54.889Z,28.00
2022-10-31T13:07:03.397Z,27.20
2022-10-31T13:11:19.668Z,26.20
2022-10-31T13:15:40.428Z,27.00
2022-10-31T13:19:46.329Z,26.70
2022-10-31T13:23:51.776Z,26.30
2022-10-31T13:28:30.949Z,30.20
2022-10-31T13:32:50.110Z,28.00
2022-10-31T13:37:18.775Z,27.60
2022-10-31T13:41:34.761Z,29.20
2022-10-31T13:45:55.390Z,29.30
2022-10-31T13:50:07.112Z,26.50
2022-10-31T13:54:23.234Z,28.60
2022-10-31T13:58:30.927Z,26.00
2022-10-31T14:02:36.957Z,26.80
2022-10-31T14:06:39.223Z,29.10
2022-10-31T14:10:48.077Z,28.70
2022-10-31T14:15:20.118Z,27.50
2022-10-31T14:19:21.070Z,27.30
2022-10-31T14:23:31.515Z,28.30
2022-10-31T14:27:29.805Z,27.80
2022-10-31T14:31:42.603Z,30.50
2022-10-31T14:36:42.759Z,28.30
2022-10-31T14:41:40.998Z,26.00
2022-10-31T14:45:03.845Z,27.70
2022-10-31T14:49:24.317Z,27.10
2022-10-31T14:53:29.335Z,30.10
2022-10-31T14:58:06.021Z,26.70
2022-10-31T15:02:35.772Z,26.80
2022-10-31T15:06:43.755Z,25.60
2022-10-31T15:10:47.078Z,22.10
2022-10-31T15:14:44.718Z,26.00
2022-10-31T15:19:05.562Z,20.30
2022-10-31T15:23:03.806Z,19.60
2022-10-31T15:27:05.121Z,16.30
2022-10-31T15:31:22.842Z,16.20
2022-10-31T15:35:26.956Z,16.70
2022-10-31T15:39:25.408Z,16.10
2022-10-31T15:43:24.296Z,17.70
2022-10-31T15:47:27.363Z,16.80
2022-10-31T15:51:32.823Z,18.90
2022-10-31T15:56:01.777Z,17.20
2022-10-31T16:00:28.543Z,17.70
2022-10-31T16:04:50.782Z,15.50
2022-10-31T16:09:05.059Z,17.30
2022-10-31T16:13:17.356Z,17.00
2022-10-31T16:17:17.856Z,16.20
2022-10-31T16:21:36.599Z,19.00
2022-10-31T16:25:39.474Z,17.00
2022-10-31T16:29:40.917Z,15.80
2022-10-31T16:33:41.602Z,15.30
2022-10-31T16:37:55.074Z,14.80
2022-10-31T16:41:58.411Z,15.90
2022-10-31T16:45:57.458Z,17.00
2022-10-31T16:50:01.171Z,16.00
2022-10-31T16:54:00.488Z,16.50
2022-10-31T16:58:01.321Z,16.70
2022-10-31T17:02:01.466Z,16.70
2022-10-31T17:06:01.005Z,17.10
2022-10-31T17:10:00.009Z,15.20
2022-10-31T17:13:59.229Z,16.60
2022-10-31T17:17:58.055Z,12.90
2022-10-31T17:21:56.602Z,15.20
2022-10-31T17:25:56.165Z,14.30
2022-10-31T17:29:54.791Z,14.50
2022-10-31T17:34:01.797Z,16.10
2022-10-31T17:38:02.598Z,17.00
2022-10-31T17:42:01.270Z,16.70
2022-10-31T17:46:00.979Z,16.40
2022-10-31T17:49:58.863Z,17.60
2022-10-31T17:53:58.513Z,16.00
2022-10-31T17:57:57.095Z,16.30
2022-10-31T18:01:55.727Z,16.40
2022-10-31T18:05:59.288Z,17.30
2022-10-31T18:09:58.036Z,15.10
2022-10-31T18:13:58.162Z,14.50
2022-10-31T18:17:56.315Z,13.60
2022-10-31T18:21:54.915Z,12.40
2022-10-31T18:25:54.689Z,14.90
2022-10-31T18:29:53.793Z,15.80
2022-10-31T18:34:05.956Z,14.70
2022-10-31T18:38:06.435Z,13.50
2022-10-31T18:42:05.497Z,14.60
2022-10-31T18:46:06.909Z,14.60
2022-10-31T18:50:06.423Z,14.10
2022-10-31T18:54:06.606Z,14.20
2022-10-31T18:58:06.473Z,13.10
2022-10-31T19:02:15.407Z,16.10
2022-10-31T19:06:15.525Z,16.10
2022-10-31T19:10:14.070Z,15.60
2022-10-31T19:14:15.157Z,13.80
2022-10-31T19:18:15.449Z,9.30
2022-10-31T19:21:51.877Z,8.30
2022-10-31T19:25:50.239Z,6.90
2022-10-31T19:29:49.255Z,5.10
2022-10-31T19:33:48.309Z,5.30
2022-10-31T19:38:00.827Z,5.50
2022-10-31T19:41:59.882Z,5.80
2022-10-31T19:46:22.357Z,5.30
2022-10-31T19:50:32.121Z,5.20
2022-10-31T19:54:32.207Z,3.30
2022-10-31T19:58:33.029Z,3.20
2022-10-31T20:02:45.549Z,3.10
2022-10-31T20:06:57.689Z,3.40
2022-10-31T20:10:57.256Z,3.10
2022-10-31T20:14:56.310Z,3.10
2022-10-31T20:18:56.821Z,3.20
2022-10-31T20:22:55.399Z,3.50
2022-10-31T20:26:54.117Z,4.40
2022-10-31T20:31:18.515Z,4.90
2022-10-31T20:35:17.757Z,5.80
2022-10-31T20:39:16.548Z,6.30
2022-10-31T20:43:16.743Z,5.10
2022-10-31T20:47:15.147Z,4.40
2022-10-31T20:55:15.871Z,4.80
2022-10-31T20:59:15.469Z,5.00
2022-10-31T21:03:27.617Z,5.60
2022-10-31T21:07:26.498Z,5.70
2022-10-31T21:11:27.353Z,5.70
2022-10-31T21:15:39.651Z,5.50
2022-10-31T21:19:37.969Z,6.10
2022-10-31T21:23:37.198Z,5.40
2022-10-31T21:27:35.704Z,5.20
2022-10-31T21:31:36.328Z,5.00
2022-10-31T21:35:35.030Z,5.20
2022-10-31T21:39:33.929Z,4.60
2022-10-31T21:43:36.289Z,5.10
2022-10-31T21:47:34.959Z,6.00
2022-10-31T21:51:36.515Z,5.40
2022-10-31T21:55:34.419Z,5.60
2022-10-31T21:59:32.929Z,5.20
2022-10-31T22:03:45.256Z,4.70
2022-10-31T22:07:43.992Z,5.60
2022-10-31T22:11:43.723Z,5.90
2022-10-31T22:15:41.723Z,5.90
2022-10-31T22:19:54.682Z,6.10
2022-10-31T22:24:01.894Z,6.70
2022-10-31T22:28:08.097Z,5.70
2022-10-31T22:32:06.785Z,5.50
2022-10-31T22:36:09.070Z,6.10
2022-10-31T22:40:08.542Z,5.30
2022-10-31T22:44:06.748Z,5.70
2022-10-31T22:48:05.629Z,5.30
2022-10-31T22:52:19.932Z,4.90
2022-10-31T22:56:21.649Z,5.10
2022-10-31T23:00:24.155Z,5.70
2022-10-31T23:03:58.688Z,6.40
2022-10-31T23:07:56.889Z,7.20
2022-10-31T23:12:15.436Z,6.70
2022-10-31T23:16:14.350Z,7.10
2022-10-31T23:20:12.516Z,7.00
2022-10-31T23:24:12.416Z,7.60
2022-10-31T23:28:11.000Z,7.80
2022-10-31T23:32:35.530Z,8.40
2022-10-31T23:36:48.571Z,8.20
2022-10-31T23:41:00.759Z,8.60
2022-10-31T23:45:12.475Z,9.10
2022-10-31T23:49:24.898Z,9.00
2022-10-31T23:53:23.743Z,8.80
2022-10-31T23:57:22.137Z,9.10
